createdAt,value
2022-09-23T00:01:34.784Z,1.83
2022-09-23T00:04:03.471Z,1.90
2022-09-23T00:06:31.939Z,2.25
2022-09-23T00:09:00.620Z,1.90
2022-09-23T00:11:30.075Z,1.60
2022-09-23T00:13:59.738Z,1.60
2022-09-23T00:16:30.866Z,1.90
2022-09-23T00:18:59.458Z,1.70
2022-09-23T00:21:27.894Z,1.50
2022-09-23T00:23:56.413Z,1.83
2022-09-23T00:26:25.463Z,1.80
2022-09-23T00:28:54.235Z,1.63
2022-09-23T00:31:23.622Z,1.80
2022-09-23T00:33:56.742Z,1.50
2022-09-23T00:36:26.093Z,1.60
2022-09-23T00:38:55.212Z,1.70
2022-09-23T00:41:23.733Z,1.70
2022-09-23T00:43:53.674Z,1.80
2022-09-23T00:46:24.305Z,1.83
2022-09-23T00:48:54.988Z,1.70
2022-09-23T00:51:26.992Z,2.23
2022-09-23T00:53:55.937Z,1.67
2022-09-23T00:56:24.857Z,1.70
2022-09-23T00:58:53.654Z,1.77
2022-09-23T01:01:22.592Z,1.40
2022-09-23T01:03:51.165Z,1.63
2022-09-23T01:06:20.331Z,1.63
2022-09-23T01:08:50.530Z,1.67
2022-09-23T01:11:29.306Z,1.53
2022-09-23T01:14:03.645Z,1.47
2022-09-23T01:16:35.518Z,1.50
2022-09-23T01:19:08.578Z,1.73
2022-09-23T01:21:41.527Z,1.57
2022-09-23T01:24:28.835Z,1.60
2022-09-23T01:27:03.530Z,1.80
2022-09-23T01:29:52.985Z,1.70
2022-09-23T01:32:27.002Z,1.90
2022-09-23T01:34:59.553Z,2.03
2022-09-23T01:37:32.722Z,1.90
2022-09-23T01:40:06.362Z,2.00
2022-09-23T01:42:37.533Z,2.03
2022-09-23T01:45:09.091Z,1.67
2022-09-23T01:47:42.009Z,1.70
2022-09-23T01:50:27.191Z,1.50
2022-09-23T01:52:57.277Z,1.70
2022-09-23T01:55:28.974Z,1.60
2022-09-23T01:58:01.123Z,1.80
2022-09-23T02:00:31.737Z,1.77
2022-09-23T02:03:04.974Z,1.60
2022-09-23T02:05:37.005Z,1.70
2022-09-23T02:08:07.879Z,1.37
2022-09-23T02:10:41.173Z,1.90
2022-09-23T02:13:13.898Z,1.50
2022-09-23T02:15:44.802Z,1.50
2022-09-23T02:18:16.345Z,1.50
2022-09-23T02:20:45.369Z,2.00
2022-09-23T02:23:15.074Z,1.80
2022-09-23T02:25:47.213Z,1.53
2022-09-23T02:28:19.333Z,1.90
2022-09-23T02:30:51.646Z,1.63
2022-09-23T02:33:22.870Z,1.60
2022-09-23T02:35:55.338Z,2.13
2022-09-23T02:38:27.095Z,1.47
2022-09-23T02:40:58.910Z,1.50
2022-09-23T02:43:33.914Z,1.57
2022-09-23T02:46:02.698Z,1.60
2022-09-23T02:48:35.927Z,1.57
2022-09-23T02:51:04.689Z,1.80
2022-09-23T02:53:34.619Z,1.80
2022-09-23T02:56:03.210Z,1.47
2022-09-23T02:58:31.839Z,1.40
2022-09-23T03:01:06.172Z,1.70
2022-09-23T03:03:41.298Z,1.67
2022-09-23T03:06:16.102Z,1.47
2022-09-23T03:08:50.570Z,1.37
2022-09-23T03:11:19.039Z,1.50
2022-09-23T03:13:53.336Z,1.60
2022-09-23T03:16:26.047Z,1.93
2022-09-23T03:18:59.352Z,1.53
2022-09-23T03:21:30.821Z,1.63
2022-09-23T03:24:01.592Z,1.50
2022-09-23T03:26:31.485Z,1.40
2022-09-23T03:29:00.874Z,1.60
2022-09-23T03:31:29.829Z,1.50
2022-09-23T03:34:01.954Z,1.30
2022-09-23T03:36:51.887Z,1.77
2022-09-23T03:39:25.973Z,1.50
2022-09-23T03:41:55.210Z,1.50
2022-09-23T03:44:23.761Z,1.37
2022-09-23T03:46:52.254Z,1.67
2022-09-23T03:49:27.837Z,1.70
2022-09-23T03:51:56.581Z,1.50
2022-09-23T03:54:25.918Z,1.80
2022-09-23T03:56:57.793Z,1.70
2022-09-23T03:59:26.345Z,1.30
2022-09-23T04:01:55.611Z,1.73
2022-09-23T04:04:25.874Z,1.60
2022-09-23T04:06:54.463Z,1.70
2022-09-23T04:09:22.939Z,1.40
2022-09-23T04:11:51.518Z,1.70
2022-09-23T04:14:20.717Z,1.40
2022-09-23T04:16:49.751Z,1.30
2022-09-23T04:19:18.667Z,1.50
2022-09-23T04:21:49.185Z,1.50
2022-09-23T04:24:18.327Z,1.40
2022-09-23T04:26:46.805Z,1.67
2022-09-23T04:29:15.407Z,1.87
2022-09-23T04:31:43.859Z,1.50
2022-09-23T04:34:12.891Z,1.70
2022-09-23T04:36:41.482Z,2.40
2022-09-23T04:39:11.277Z,1.60
2022-09-23T04:41:39.937Z,1.77
2022-09-23T04:44:08.551Z,1.73
2022-09-23T04:46:37.180Z,1.60
2022-09-23T04:49:05.818Z,1.77
2022-09-23T04:51:34.659Z,2.30
2022-09-23T04:54:03.098Z,1.50
2022-09-23T04:56:33.863Z,1.40
2022-09-23T04:59:02.846Z,1.53
2022-09-23T05:01:32.626Z,1.80
2022-09-23T05:04:02.645Z,1.50
2022-09-23T05:06:32.526Z,2.27
2022-09-23T05:09:01.149Z,1.80
2022-09-23T05:11:31.272Z,1.40
2022-09-23T05:14:01.496Z,1.70
2022-09-23T05:16:30.074Z,1.70
2022-09-23T05:18:58.826Z,1.33
2022-09-23T05:21:29.019Z,1.40
2022-09-23T05:24:00.510Z,1.50
2022-09-23T05:26:29.742Z,1.33
2022-09-23T05:28:58.492Z,1.60
2022-09-23T05:31:29.510Z,1.40
2022-09-23T05:33:58.930Z,1.37
2022-09-23T05:36:28.377Z,1.50
2022-09-23T05:38:58.033Z,1.50
2022-09-23T05:41:27.332Z,1.40
2022-09-23T05:43:56.701Z,1.50
2022-09-23T05:46:27.932Z,1.40
2022-09-23T05:49:02.102Z,1.40
2022-09-23T05:51:36.249Z,1.30
2022-09-23T05:54:05.496Z,1.00
2022-09-23T05:56:35.758Z,1.20
2022-09-23T05:59:04.828Z,1.43
2022-09-23T06:01:34.402Z,1.40
2022-09-23T06:04:05.852Z,1.57
2022-09-23T06:06:35.220Z,1.30
2022-09-23T06:09:06.469Z,1.40
2022-09-23T06:11:35.810Z,1.30
2022-09-23T06:14:04.440Z,1.60
2022-09-23T06:16:34.883Z,1.53
2022-09-23T06:19:07.012Z,1.50
2022-09-23T06:21:36.487Z,1.50
2022-09-23T06:24:05.410Z,1.70
2022-09-23T06:26:35.170Z,1.67
2022-09-23T06:29:07.866Z,1.30
2022-09-23T06:31:36.369Z,2.00
2022-09-23T06:34:11.904Z,1.50
2022-09-23T06:36:44.475Z,2.83
2022-09-23T06:39:13.996Z,1.20
2022-09-23T06:41:42.666Z,1.17
2022-09-23T06:44:11.110Z,1.40
2022-09-23T06:46:39.786Z,1.60
2022-09-23T06:49:09.860Z,1.27
2022-09-23T06:51:38.292Z,1.40
2022-09-23T06:54:07.071Z,1.30
2022-09-23T06:56:39.219Z,1.33
2022-09-23T06:59:08.360Z,1.43
2022-09-23T07:01:36.910Z,1.47
2022-09-23T07:04:05.600Z,1.40
2022-09-23T07:06:35.688Z,1.53
2022-09-23T07:09:04.236Z,1.30
2022-09-23T07:11:32.873Z,1.27
2022-09-23T07:14:01.472Z,1.53
2022-09-23T07:16:29.985Z,1.40
2022-09-23T07:18:58.854Z,1.20
2022-09-23T07:21:27.967Z,1.30
2022-09-23T07:23:58.367Z,1.60
2022-09-23T07:26:27.495Z,1.20
2022-09-23T07:28:56.935Z,1.30
2022-09-23T07:31:37.914Z,1.27
2022-09-23T07:34:08.416Z,1.20
2022-09-23T07:36:40.682Z,1.97
2022-09-23T07:39:11.616Z,1.33
2022-09-23T07:41:41.652Z,1.37
2022-09-23T07:44:11.828Z,30.30
2022-09-23T07:46:40.988Z,12.17
2022-09-23T07:49:10.585Z,2.30
2022-09-23T07:51:40.663Z,1.43
2022-09-23T07:54:12.426Z,1.50
2022-09-23T07:56:42.588Z,1.90
2022-09-23T07:59:15.549Z,1.10
2022-09-23T08:01:45.081Z,1.80
2022-09-23T08:04:14.954Z,1.30
2022-09-23T08:06:44.033Z,1.30
2022-09-23T08:09:13.067Z,2.93
2022-09-23T08:11:43.153Z,1.57
2022-09-23T08:14:13.314Z,2.10
2022-09-23T08:16:41.764Z,1.70
2022-09-23T08:19:10.397Z,1.30
2022-09-23T08:21:39.475Z,2.03
2022-09-23T08:24:08.511Z,1.90
2022-09-23T08:26:37.945Z,1.30
2022-09-23T08:29:10.271Z,2.47
2022-09-23T08:31:38.826Z,4.80
2022-09-23T08:34:07.821Z,1.50
2022-09-23T08:36:36.950Z,1.40
2022-09-23T08:39:05.997Z,1.40
2022-09-23T08:41:39.823Z,1.50
2022-09-23T08:44:13.855Z,1.70
2022-09-23T08:46:46.769Z,1.57
2022-09-23T08:49:18.119Z,1.20
2022-09-23T08:51:48.658Z,1.20
2022-09-23T08:54:18.274Z,1.40
2022-09-23T08:56:48.973Z,1.40
2022-09-23T08:59:21.746Z,1.30
2022-09-23T09:01:52.015Z,1.50
2022-09-23T09:04:22.466Z,1.30
2022-09-23T09:06:54.350Z,1.70
2022-09-23T09:09:29.333Z,1.73
2022-09-23T09:12:03.193Z,1.60
2022-09-23T09:14:36.808Z,1.10
2022-09-23T09:17:07.982Z,1.27
2022-09-23T09:19:57.486Z,1.20
2022-09-23T09:22:49.514Z,1.30
2022-09-23T09:25:34.570Z,2.13
2022-09-23T09:28:03.313Z,1.80
2022-09-23T09:30:36.091Z,1.30
2022-09-23T09:33:06.597Z,1.30
2022-09-23T09:35:38.077Z,1.40
2022-09-23T09:38:06.891Z,1.20
2022-09-23T09:40:36.049Z,1.40
2022-09-23T09:43:05.684Z,1.20
2022-09-23T09:45:41.404Z,1.10
2022-09-23T09:48:12.230Z,1.20
2022-09-23T09:50:44.966Z,1.40
2022-09-23T09:53:17.318Z,1.30
2022-09-23T09:55:48.418Z,1.73
2022-09-23T09:58:16.966Z,1.40
2022-09-23T10:00:47.996Z,1.43
2022-09-23T10:03:33.215Z,1.43
2022-09-23T10:06:01.809Z,1.50
2022-09-23T10:08:32.375Z,1.20
2022-09-23T10:11:05.504Z,1.20
2022-09-23T10:13:34.204Z,1.17
2022-09-23T10:16:04.671Z,1.03
2022-09-23T10:18:36.064Z,1.50
2022-09-23T10:21:08.452Z,1.30
2022-09-23T10:23:40.509Z,1.20
2022-09-23T10:26:10.322Z,1.10
2022-09-23T10:28:43.139Z,1.20
2022-09-23T10:31:14.153Z,1.20
2022-09-23T10:33:43.527Z,1.57
2022-09-23T10:36:12.541Z,1.50
2022-09-23T10:38:41.047Z,1.23
2022-09-23T10:41:33.111Z,1.47
2022-09-23T10:44:27.025Z,1.37
2022-09-23T10:47:03.903Z,1.30
2022-09-23T10:49:43.761Z,2.03
2022-09-23T10:52:32.164Z,1.30
2022-09-23T10:55:06.845Z,1.30
2022-09-23T10:57:41.847Z,1.27
2022-09-23T11:00:17.593Z,1.10
2022-09-23T11:02:56.327Z,1.30
2022-09-23T11:05:33.542Z,1.33
2022-09-23T11:08:06.111Z,1.30
2022-09-23T11:10:53.017Z,1.30
2022-09-23T11:13:27.146Z,1.13
2022-09-23T11:15:59.681Z,1.30
2022-09-23T11:18:49.933Z,1.33
2022-09-23T11:21:25.907Z,1.43
2022-09-23T11:24:09.311Z,1.40
2022-09-23T11:26:43.239Z,1.13
2022-09-23T11:29:27.212Z,1.00
2022-09-23T11:32:01.003Z,1.50
2022-09-23T11:34:45.980Z,1.20
2022-09-23T11:37:16.357Z,1.27
2022-09-23T11:39:48.252Z,1.10
2022-09-23T11:42:19.843Z,1.30
2022-09-23T11:44:50.792Z,1.40
2022-09-23T11:47:23.761Z,1.47
2022-09-23T11:49:55.468Z,1.23
2022-09-23T11:52:27.123Z,1.20
2022-09-23T11:54:57.930Z,1.30
2022-09-23T11:57:40.594Z,1.50
2022-09-23T12:00:16.741Z,1.13
2022-09-23T12:03:02.055Z,1.40
2022-09-23T12:05:37.235Z,1.30
2022-09-23T12:08:08.466Z,1.10
2022-09-23T12:10:41.724Z,1.20
2022-09-23T12:13:13.203Z,1.60
2022-09-23T12:16:00.086Z,1.30
2022-09-23T12:18:52.687Z,1.47
2022-09-23T12:21:50.140Z,1.03
2022-09-23T12:24:43.098Z,1.27
2022-09-23T12:27:14.257Z,1.50
2022-09-23T12:29:43.220Z,1.10
2022-09-23T12:32:18.939Z,1.27
2022-09-23T12:34:52.058Z,1.20
2022-09-23T12:37:27.406Z,1.50
2022-09-23T12:39:56.361Z,1.30
2022-09-23T12:42:28.946Z,1.10
2022-09-23T12:45:14.408Z,1.10
2022-09-23T12:47:43.430Z,1.40
2022-09-23T12:50:30.593Z,1.30
2022-09-23T12:53:20.574Z,1.30
2022-09-23T12:55:51.739Z,1.40
2022-09-23T12:58:46.971Z,1.63
2022-09-23T13:01:19.478Z,1.20
2022-09-23T13:04:06.135Z,2.07
2022-09-23T13:06:41.086Z,2.23
2022-09-23T13:09:14.943Z,1.20
2022-09-23T13:11:45.019Z,1.60
2022-09-23T13:14:17.446Z,1.63
2022-09-23T13:16:46.775Z,1.30
2022-09-23T13:19:30.086Z,1.50
2022-09-23T13:22:09.404Z,1.50
2022-09-23T13:24:45.895Z,1.27
2022-09-23T13:27:19.939Z,1.40
2022-09-23T13:29:52.479Z,1.17
2022-09-23T13:32:24.501Z,1.33
2022-09-23T13:34:58.007Z,1.50
2022-09-23T13:37:27.649Z,2.30
2022-09-23T13:40:08.538Z,1.37
2022-09-23T13:42:37.998Z,1.20
2022-09-23T13:45:06.747Z,1.23
2022-09-23T13:47:37.986Z,1.43
2022-09-23T13:50:07.001Z,1.20
2022-09-23T13:52:35.670Z,1.37
2022-09-23T13:55:05.638Z,1.30
2022-09-23T13:57:35.413Z,1.60
2022-09-23T14:00:04.967Z,1.40
2022-09-23T14:02:33.428Z,1.37
2022-09-23T14:05:12.601Z,1.60
2022-09-23T14:07:41.208Z,1.47
2022-09-23T14:10:19.039Z,1.60
2022-09-23T14:12:48.446Z,1.80
2022-09-23T14:15:17.454Z,1.73
2022-09-23T14:17:47.798Z,1.80
2022-09-23T14:20:17.409Z,1.40
2022-09-23T14:22:49.446Z,1.83
2022-09-23T14:25:21.707Z,1.80
2022-09-23T14:27:54.550Z,1.70
2022-09-23T14:30:28.142Z,1.80
2022-09-23T14:32:57.257Z,2.20
2022-09-23T14:35:27.571Z,2.00
2022-09-23T14:38:15.013Z,1.90
2022-09-23T14:40:53.516Z,1.67
2022-09-23T14:43:25.085Z,2.13
2022-09-23T14:45:55.231Z,1.80
2022-09-23T14:48:25.930Z,1.80
2022-09-23T14:50:57.054Z,1.97
2022-09-23T14:53:35.812Z,1.83
2022-09-23T14:56:17.219Z,1.90
2022-09-23T14:58:52.681Z,1.70
2022-09-23T15:01:29.737Z,1.50
2022-09-23T15:03:58.559Z,1.90
2022-09-23T15:06:27.995Z,2.00
2022-09-23T15:08:57.323Z,2.00
2022-09-23T15:11:27.671Z,1.87
2022-09-23T15:13:59.862Z,2.10
2022-09-23T15:16:40.436Z,1.90
2022-09-23T15:19:14.565Z,2.30
2022-09-23T15:21:45.374Z,2.03
2022-09-23T15:24:28.667Z,2.03
2022-09-23T15:26:59.209Z,2.53
2022-09-23T15:29:27.903Z,2.30
2022-09-23T15:31:56.468Z,1.90
2022-09-23T15:34:25.230Z,2.13
2022-09-23T15:36:54.099Z,2.17
2022-09-23T15:39:22.714Z,1.97
2022-09-23T15:41:51.388Z,2.00
2022-09-23T15:44:21.803Z,2.10
2022-09-23T15:46:51.958Z,1.87
2022-09-23T15:49:26.276Z,2.30
2022-09-23T15:51:57.639Z,2.47
2022-09-23T15:54:26.225Z,2.27
2022-09-23T15:56:55.407Z,2.10
2022-09-23T15:59:25.252Z,2.60
2022-09-23T16:01:54.573Z,2.50
2022-09-23T16:04:23.142Z,2.27
2022-09-23T16:06:51.562Z,2.67
2022-09-23T16:09:20.064Z,2.70
2022-09-23T16:11:49.865Z,2.50
2022-09-23T16:14:19.369Z,2.30
2022-09-23T16:16:49.314Z,2.60
2022-09-23T16:19:18.081Z,2.53
2022-09-23T16:21:46.590Z,3.07
2022-09-23T16:24:17.891Z,2.40
2022-09-23T16:26:47.650Z,2.60
2022-09-23T16:29:16.886Z,3.00
2022-09-23T16:31:45.388Z,2.93
2022-09-23T16:34:15.371Z,2.50
2022-09-23T16:36:45.228Z,2.53
2022-09-23T16:39:14.779Z,2.50
2022-09-23T16:41:43.718Z,2.70
2022-09-23T16:44:12.524Z,2.53
2022-09-23T16:46:42.880Z,2.97
2022-09-23T16:49:12.638Z,2.77
2022-09-23T16:51:42.547Z,2.70
2022-09-23T16:54:11.605Z,2.83
2022-09-23T16:56:44.435Z,2.57
2022-09-23T16:59:13.208Z,2.30
2022-09-23T17:01:59.362Z,2.87
2022-09-23T17:04:28.131Z,2.50
2022-09-23T17:06:58.067Z,3.10
2022-09-23T17:09:27.466Z,2.70
2022-09-23T17:11:59.854Z,2.83
2022-09-23T17:14:31.439Z,2.63
2022-09-23T17:17:00.241Z,2.80
2022-09-23T17:19:28.750Z,2.70
2022-09-23T17:21:58.711Z,3.10
2022-09-23T17:24:27.354Z,3.20
2022-09-23T17:26:55.798Z,3.40
2022-09-23T17:29:26.929Z,3.00
2022-09-23T17:31:56.148Z,3.20
2022-09-23T17:34:25.142Z,2.80
2022-09-23T17:36:53.726Z,3.53
2022-09-23T17:39:23.606Z,3.13
2022-09-23T17:41:58.649Z,2.80
2022-09-23T17:44:27.529Z,2.60
2022-09-23T17:46:55.970Z,3.80
2022-09-23T17:49:24.737Z,3.43
2022-09-23T17:51:53.243Z,3.43
2022-09-23T17:54:23.050Z,3.17
2022-09-23T17:56:51.593Z,3.50
2022-09-23T17:59:20.126Z,3.10
2022-09-23T18:01:48.586Z,3.20
2022-09-23T18:04:17.198Z,3.80
2022-09-23T18:06:45.758Z,3.80
2022-09-23T18:09:14.172Z,3.63
2022-09-23T18:11:45.575Z,3.73
2022-09-23T18:14:16.417Z,3.83
2022-09-23T18:16:45.700Z,3.60
2022-09-23T18:19:15.175Z,4.73
2022-09-23T18:21:44.586Z,3.87
2022-09-23T18:24:32.191Z,3.73
2022-09-23T18:27:02.883Z,3.70
2022-09-23T18:29:31.659Z,3.17
2022-09-23T18:32:00.319Z,3.80
2022-09-23T18:34:29.093Z,3.17
2022-09-23T18:36:57.526Z,3.60
2022-09-23T18:39:25.996Z,3.33
2022-09-23T18:41:54.951Z,3.40
2022-09-23T18:44:24.990Z,3.00
2022-09-23T18:46:53.421Z,3.47
2022-09-23T18:49:38.890Z,3.50
2022-09-23T18:52:07.315Z,3.30
2022-09-23T18:54:35.915Z,3.03
2022-09-23T18:57:04.454Z,3.10
2022-09-23T18:59:34.281Z,3.03
2022-09-23T19:02:03.085Z,3.30
2022-09-23T19:04:31.848Z,3.30
2022-09-23T19:07:00.341Z,3.40
2022-09-23T19:09:29.525Z,2.90
2022-09-23T19:11:58.101Z,3.00
2022-09-23T19:14:26.787Z,3.13
2022-09-23T19:16:56.706Z,3.37
2022-09-23T19:19:25.226Z,3.27
2022-09-23T19:21:54.817Z,3.23
2022-09-23T19:24:23.415Z,3.40
2022-09-23T19:26:51.939Z,3.37
2022-09-23T19:29:21.854Z,3.20
2022-09-23T19:31:51.076Z,2.87
2022-09-23T19:34:23.972Z,3.13
2022-09-23T19:36:52.847Z,3.40
2022-09-23T19:39:22.275Z,3.23
2022-09-23T19:41:52.530Z,3.80
2022-09-23T19:44:21.054Z,3.87
2022-09-23T19:46:55.021Z,3.83
2022-09-23T19:49:26.413Z,4.80
2022-09-23T19:51:56.587Z,4.07
2022-09-23T19:54:27.298Z,3.70
2022-09-23T19:56:56.526Z,4.20
2022-09-23T19:59:26.399Z,4.73
2022-09-23T20:01:55.237Z,4.63
2022-09-23T20:04:23.908Z,4.57
2022-09-23T20:06:53.745Z,4.20
2022-09-23T20:09:22.268Z,4.07
2022-09-23T20:11:51.164Z,4.47
2022-09-23T20:14:20.211Z,4.13
2022-09-23T20:16:48.675Z,4.30
2022-09-23T20:19:17.459Z,4.30
2022-09-23T20:22:05.890Z,3.80
2022-09-23T20:24:35.991Z,4.50
2022-09-23T20:27:10.574Z,4.10
2022-09-23T20:29:39.585Z,4.10
2022-09-23T20:32:09.047Z,4.17
2022-09-23T20:34:37.648Z,4.40
2022-09-23T20:37:06.519Z,4.20
2022-09-23T20:39:36.493Z,4.97
2022-09-23T20:42:06.769Z,4.07
2022-09-23T20:44:35.399Z,4.40
2022-09-23T20:47:03.862Z,4.40
2022-09-23T20:49:34.276Z,5.50
2022-09-23T20:52:03.117Z,4.40
2022-09-23T20:54:32.342Z,5.00
2022-09-23T20:57:02.911Z,4.50
2022-09-23T20:59:31.415Z,4.10
2022-09-23T21:01:59.913Z,4.17
2022-09-23T21:04:28.842Z,5.10
2022-09-23T21:06:58.212Z,4.70
2022-09-23T21:09:28.097Z,4.63
2022-09-23T21:11:56.974Z,4.33
2022-09-23T21:14:26.883Z,4.20
2022-09-23T21:16:55.803Z,3.80
2022-09-23T21:19:25.107Z,3.87
2022-09-23T21:21:53.706Z,3.97
2022-09-23T21:24:53.515Z,4.17
2022-09-23T21:27:10.918Z,3.90
2022-09-23T21:29:40.767Z,3.80
2022-09-23T21:32:10.450Z,3.63
2022-09-23T21:34:39.083Z,3.33
2022-09-23T21:37:08.378Z,3.40
2022-09-23T21:39:36.818Z,3.87
2022-09-23T21:42:06.072Z,3.93
2022-09-23T21:44:34.804Z,3.97
2022-09-23T21:47:04.939Z,3.60
2022-09-23T21:49:33.601Z,3.67
2022-09-23T21:52:02.023Z,3.30
2022-09-23T21:54:31.293Z,3.20
2022-09-23T21:57:00.588Z,3.93
2022-09-23T21:59:29.386Z,3.77
2022-09-23T22:01:58.489Z,3.53
2022-09-23T22:04:28.543Z,3.90
2022-09-23T22:06:57.435Z,3.60
2022-09-23T22:09:25.854Z,4.17
2022-09-23T22:12:08.740Z,4.67
2022-09-23T22:14:38.955Z,4.43
2022-09-23T22:17:08.500Z,4.23
2022-09-23T22:19:44.352Z,3.90
2022-09-23T22:22:15.762Z,4.67
2022-09-23T22:24:44.545Z,4.33
2022-09-23T22:27:14.001Z,4.70
2022-09-23T22:30:00.234Z,4.10
2022-09-23T22:32:54.293Z,4.80
2022-09-23T22:35:25.131Z,4.30
2022-09-23T22:37:53.568Z,4.47
2022-09-23T22:40:24.217Z,5.43
2022-09-23T22:42:53.234Z,6.13
2022-09-23T22:45:21.686Z,5.80
2022-09-23T22:47:53.247Z,6.20
2022-09-23T22:50:21.923Z,5.70
2022-09-23T22:52:52.144Z,6.30
2022-09-23T22:55:20.645Z,6.50
2022-09-23T22:57:51.974Z,5.83
2022-09-23T23:00:20.462Z,5.10
2022-09-23T23:02:48.896Z,5.33
2022-09-23T23:05:17.646Z,5.37
2022-09-23T23:07:46.124Z,5.00
2022-09-23T23:10:16.953Z,5.73
2022-09-23T23:12:47.038Z,5.40
2022-09-23T23:15:16.322Z,5.43
2022-09-23T23:17:44.758Z,5.33
2022-09-23T23:20:13.386Z,5.93
2022-09-23T23:22:41.974Z,5.77
2022-09-23T23:25:10.801Z,5.60
2022-09-23T23:27:40.871Z,6.10
2022-09-23T23:30:10.107Z,5.83
2022-09-23T23:32:38.654Z,5.27
2022-09-23T23:35:08.742Z,5.30
2022-09-23T23:37:37.278Z,5.20
2022-09-23T23:40:05.842Z,5.60
2022-09-23T23:42:34.836Z,5.27
2022-09-23T23:45:04.817Z,5.50
2022-09-23T23:47:33.255Z,6.50
2022-09-23T23:50:04.563Z,5.60
2022-09-23T23:52:33.201Z,5.10
2022-09-23T23:55:01.672Z,5.03
2022-09-23T23:57:30.510Z,4.93
2022-09-23T23:59:59.058Z,5.00
